RYR21F EDDB-EKCH
Flight info
| Callsign | RYR21F |
|---|---|
| Flight time | 0h 42m |
| Altitude | 32000 |
| Route | BIKPO1A BIKPO Y89 RENKI M725 RAKIT Z136 ADEPO Z14 USEDU M602 PENET T298 MONAK |
| Aircraft | B38M/M-SDE1FGHILORVWXY/HB1 |
Departure
| Time | 2026-05-04 17:41 |
|---|---|
| Airport | Berlin Brandenburg Airport (EDDB) |
Arrival
| Time | 2026-05-04 18:23 |
|---|---|
| Airport | Copenhagen Kastrup Airport (EKCH) |
| Time | Latitude | Longitude | Altitude | Speed | Heading |
|---|---|---|---|---|---|
| 2026-05-04 17:19 | 52.36837 | 13.50918 | 161 ft | 0 kts | 160° |
| 2026-05-04 17:31 | 52.36860 | 13.50904 | 161 ft | 3 kts | 160° |
| 2026-05-04 17:32 | 52.36895 | 13.50883 | 161 ft | 3 kts | 160° |
| 2026-05-04 17:33 | 52.36905 | 13.50877 | 161 ft | 0 kts | 160° |
| 2026-05-04 17:34 | 52.36904 | 13.50880 | 161 ft | 0 kts | 133° |
| 2026-05-04 17:34 | 52.36904 | 13.50886 | 161 ft | 0 kts | 89° |
| 2026-05-04 17:35 | 52.36905 | 13.50887 | 161 ft | 0 kts | 73° |
| 2026-05-04 17:36 | 52.36908 | 13.50901 | 161 ft | 3 kts | 69° |
| 2026-05-04 17:36 | 52.36919 | 13.50942 | 161 ft | 5 kts | 66° |
| 2026-05-04 17:36 | 52.36936 | 13.51010 | 161 ft | 8 kts | 69° |
| 2026-05-04 17:36 | 52.36958 | 13.51104 | 161 ft | 10 kts | 69° |
| 2026-05-04 17:37 | 52.36986 | 13.51225 | 161 ft | 13 kts | 68° |
| 2026-05-04 17:37 | 52.37021 | 13.51370 | 161 ft | 15 kts | 68° |
| 2026-05-04 17:37 | 52.37096 | 13.51478 | 161 ft | 16 kts | 4° |
| 2026-05-04 17:37 | 52.37173 | 13.51603 | 161 ft | 17 kts | 68° |
| 2026-05-04 17:38 | 52.37219 | 13.51797 | 161 ft | 20 kts | 69° |
| 2026-05-04 17:38 | 52.37271 | 13.52016 | 161 ft | 22 kts | 69° |
| 2026-05-04 17:38 | 52.37327 | 13.52257 | 161 ft | 24 kts | 69° |
| 2026-05-04 17:38 | 52.37389 | 13.52519 | 161 ft | 26 kts | 69° |
| 2026-05-04 17:39 | 52.37548 | 13.52713 | 161 ft | 16 kts | 338° |
| 2026-05-04 17:39 | 52.37658 | 13.52643 | 161 ft | 18 kts | 336° |
| 2026-05-04 17:39 | 52.37718 | 13.52524 | 161 ft | 12 kts | 274° |
| 2026-05-04 17:40 | 52.37679 | 13.52339 | 159 ft | 29 kts | 249° |
| 2026-05-04 17:40 | 52.37511 | 13.51629 | 157 ft | 104 kts | 249° |
| 2026-05-04 17:40 | 52.37168 | 13.50185 | 160 ft | 165 kts | 249° |
| 2026-05-04 17:40 | 52.36735 | 13.48311 | 682 ft | 179 kts | 251° |
| 2026-05-04 17:41 | 52.36290 | 13.46387 | 1540 ft | 181 kts | 252° |
| 2026-05-04 17:41 | 52.35842 | 13.44427 | 2357 ft | 188 kts | 252° |
| 2026-05-04 17:41 | 52.35387 | 13.42457 | 2795 ft | 183 kts | 250° |
| 2026-05-04 17:41 | 52.34882 | 13.40246 | 2929 ft | 228 kts | 251° |
| 2026-05-04 17:42 | 52.34296 | 13.37700 | 3631 ft | 248 kts | 249° |
| 2026-05-04 17:42 | 52.33660 | 13.35033 | 4685 ft | 252 kts | 252° |
| 2026-05-04 17:42 | 52.33312 | 13.32208 | 5751 ft | 257 kts | 263° |
| 2026-05-04 17:42 | 52.33150 | 13.29261 | 6738 ft | 263 kts | 265° |
| 2026-05-04 17:43 | 52.33065 | 13.27270 | 7360 ft | 268 kts | 265° |
| 2026-05-04 17:43 | 52.32927 | 13.24163 | 8205 ft | 279 kts | 265° |
| 2026-05-04 17:43 | 52.32823 | 13.20963 | 9137 ft | 286 kts | 273° |
| 2026-05-04 17:43 | 52.33494 | 13.17857 | 9955 ft | 299 kts | 304° |
| 2026-05-04 17:44 | 52.35133 | 13.15713 | 10801 ft | 313 kts | 334° |
| 2026-05-04 17:44 | 52.37308 | 13.15211 | 11625 ft | 326 kts | 5° |
| 2026-05-04 17:44 | 52.39528 | 13.16067 | 12586 ft | 328 kts | 13° |
| 2026-05-04 17:44 | 52.41689 | 13.17059 | 13336 ft | 325 kts | 13° |
| 2026-05-04 17:45 | 52.43947 | 13.18050 | 13671 ft | 345 kts | 11° |
| 2026-05-04 17:45 | 52.46345 | 13.19005 | 13950 ft | 366 kts | 14° |
| 2026-05-04 17:45 | 52.48692 | 13.20909 | 14168 ft | 389 kts | 35° |
| 2026-05-04 17:45 | 52.50596 | 13.24173 | 14455 ft | 406 kts | 58° |
| 2026-05-04 17:46 | 52.51702 | 13.28475 | 14886 ft | 415 kts | 71° |
| 2026-05-04 17:46 | 52.52824 | 13.32893 | 15363 ft | 422 kts | 65° |
| 2026-05-04 17:46 | 52.54119 | 13.37239 | 15989 ft | 426 kts | 62° |
| 2026-05-04 17:46 | 52.55523 | 13.41553 | 16542 ft | 430 kts | 61° |
| 2026-05-04 17:47 | 52.56994 | 13.45859 | 17119 ft | 434 kts | 60° |
| 2026-05-04 17:47 | 52.58503 | 13.50191 | 17673 ft | 438 kts | 59° |
| 2026-05-04 17:47 | 52.60313 | 13.54225 | 18200 ft | 441 kts | 44° |
| 2026-05-04 17:47 | 52.62637 | 13.57528 | 18675 ft | 444 kts | 38° |
| 2026-05-04 17:48 | 52.65032 | 13.60776 | 19123 ft | 447 kts | 38° |
| 2026-05-04 17:48 | 52.67449 | 13.64019 | 19615 ft | 450 kts | 37° |
| 2026-05-04 17:48 | 52.69893 | 13.67278 | 20072 ft | 453 kts | 37° |
| 2026-05-04 17:48 | 52.72348 | 13.70546 | 20561 ft | 455 kts | 37° |
| 2026-05-04 17:49 | 52.74821 | 13.73841 | 21009 ft | 459 kts | 37° |
| 2026-05-04 17:49 | 52.77313 | 13.77166 | 21472 ft | 462 kts | 37° |
| 2026-05-04 17:49 | 52.79818 | 13.80513 | 21935 ft | 465 kts | 37° |
| 2026-05-04 17:49 | 52.82338 | 13.83884 | 22394 ft | 468 kts | 37° |
| 2026-05-04 17:50 | 52.84920 | 13.87180 | 22838 ft | 469 kts | 29° |
| 2026-05-04 17:50 | 52.87893 | 13.89228 | 23339 ft | 462 kts | 8° |
| 2026-05-04 17:50 | 52.91027 | 13.89558 | 23722 ft | 456 kts | 351° |
| 2026-05-04 17:50 | 52.94129 | 13.88633 | 24128 ft | 451 kts | 339° |
| 2026-05-04 17:51 | 52.97005 | 13.86652 | 24544 ft | 447 kts | 329° |
| 2026-05-04 17:51 | 52.99837 | 13.84463 | 24940 ft | 451 kts | 330° |
| 2026-05-04 17:51 | 53.02697 | 13.82302 | 25324 ft | 450 kts | 331° |
| 2026-05-04 17:51 | 53.05510 | 13.80171 | 25202 ft | 441 kts | 330° |
| 2026-05-04 17:52 | 53.08333 | 13.78042 | 25192 ft | 449 kts | 331° |
| 2026-05-04 17:52 | 53.11213 | 13.75905 | 25415 ft | 456 kts | 331° |
| 2026-05-04 17:52 | 53.14095 | 13.73746 | 25836 ft | 448 kts | 330° |
| 2026-05-04 17:52 | 53.16888 | 13.71613 | 25532 ft | 437 kts | 330° |
| 2026-05-04 17:53 | 53.19692 | 13.69497 | 25445 ft | 446 kts | 331° |
| 2026-05-04 17:53 | 53.22552 | 13.67360 | 25605 ft | 454 kts | 330° |
| 2026-05-04 17:53 | 53.25434 | 13.65193 | 26074 ft | 455 kts | 330° |
| 2026-05-04 17:53 | 53.28322 | 13.63009 | 26483 ft | 452 kts | 330° |
| 2026-05-04 17:54 | 53.31137 | 13.60852 | 26159 ft | 444 kts | 329° |
| 2026-05-04 17:54 | 53.33966 | 13.58697 | 26052 ft | 448 kts | 330° |
| 2026-05-04 17:54 | 53.36832 | 13.56536 | 26087 ft | 457 kts | 330° |
| 2026-05-04 17:54 | 53.39739 | 13.54339 | 26537 ft | 457 kts | 330° |
| 2026-05-04 17:55 | 53.42622 | 13.52129 | 27112 ft | 455 kts | 329° |
| 2026-05-04 17:55 | 53.45493 | 13.49924 | 27676 ft | 453 kts | 329° |
| 2026-05-04 17:55 | 53.48360 | 13.47724 | 28225 ft | 452 kts | 329° |
| 2026-05-04 17:55 | 53.51209 | 13.45535 | 28911 ft | 449 kts | 328° |
| 2026-05-04 17:56 | 53.54034 | 13.43352 | 29585 ft | 445 kts | 328° |
| 2026-05-04 17:56 | 53.56842 | 13.41186 | 29951 ft | 439 kts | 328° |
| 2026-05-04 17:56 | 53.62403 | 13.36898 | 29964 ft | 442 kts | 328° |
| 2026-05-04 17:57 | 53.67996 | 13.32580 | 29963 ft | 442 kts | 328° |
| 2026-05-04 17:57 | 53.73580 | 13.28256 | 29964 ft | 441 kts | 328° |
| 2026-05-04 17:58 | 53.79152 | 13.23931 | 29981 ft | 440 kts | 327° |
| 2026-05-04 17:58 | 53.84710 | 13.19603 | 29967 ft | 440 kts | 327° |
| 2026-05-04 17:59 | 53.90272 | 13.15258 | 29971 ft | 441 kts | 327° |
| 2026-05-04 18:00 | 53.98632 | 13.08704 | 29970 ft | 441 kts | 327° |
| 2026-05-04 18:00 | 54.04206 | 13.04319 | 29973 ft | 441 kts | 327° |
| 2026-05-04 18:01 | 54.09706 | 12.99977 | 29253 ft | 432 kts | 327° |
| 2026-05-04 18:01 | 54.12441 | 12.97820 | 28316 ft | 435 kts | 327° |
| 2026-05-04 18:01 | 54.15179 | 12.95654 | 27805 ft | 435 kts | 327° |
| 2026-05-04 18:02 | 54.20696 | 12.91284 | 26926 ft | 439 kts | 328° |
| 2026-05-04 18:02 | 54.23471 | 12.89080 | 26546 ft | 441 kts | 328° |
| 2026-05-04 18:02 | 54.26232 | 12.86885 | 26175 ft | 446 kts | 328° |
| 2026-05-04 18:02 | 54.29050 | 12.84642 | 25810 ft | 448 kts | 328° |
| 2026-05-04 18:03 | 54.31876 | 12.82387 | 25437 ft | 448 kts | 328° |
| 2026-05-04 18:03 | 54.34760 | 12.80362 | 24993 ft | 450 kts | 336° |
| 2026-05-04 18:03 | 54.37867 | 12.79562 | 24525 ft | 455 kts | 350° |
| 2026-05-04 18:03 | 54.40991 | 12.79231 | 24064 ft | 444 kts | 347° |
| 2026-05-04 18:04 | 54.44046 | 12.78762 | 23534 ft | 438 kts | 347° |
| 2026-05-04 18:04 | 54.47061 | 12.78269 | 22937 ft | 432 kts | 347° |
| 2026-05-04 18:04 | 54.52977 | 12.77263 | 21753 ft | 423 kts | 347° |
| 2026-05-04 18:05 | 54.55888 | 12.76762 | 21180 ft | 419 kts | 348° |
| 2026-05-04 18:05 | 54.58775 | 12.76264 | 20620 ft | 415 kts | 348° |
| 2026-05-04 18:05 | 54.61635 | 12.75770 | 20086 ft | 411 kts | 348° |
| 2026-05-04 18:05 | 54.64471 | 12.75279 | 19541 ft | 408 kts | 349° |
| 2026-05-04 18:06 | 54.70079 | 12.74305 | 18489 ft | 402 kts | 349° |
| 2026-05-04 18:06 | 54.72857 | 12.73822 | 17916 ft | 400 kts | 349° |
| 2026-05-04 18:06 | 54.75613 | 12.73341 | 17407 ft | 396 kts | 349° |
| 2026-05-04 18:07 | 54.78334 | 12.72866 | 16931 ft | 391 kts | 349° |
| 2026-05-04 18:07 | 54.81028 | 12.72396 | 16464 ft | 386 kts | 349° |
| 2026-05-04 18:07 | 54.83693 | 12.71930 | 15997 ft | 383 kts | 349° |
| 2026-05-04 18:07 | 54.86330 | 12.71468 | 15568 ft | 378 kts | 349° |
| 2026-05-04 18:08 | 54.88920 | 12.71015 | 15126 ft | 369 kts | 349° |
| 2026-05-04 18:08 | 54.91440 | 12.70573 | 14696 ft | 360 kts | 349° |
| 2026-05-04 18:08 | 54.93902 | 12.70141 | 14259 ft | 352 kts | 349° |
| 2026-05-04 18:08 | 54.96313 | 12.69716 | 13834 ft | 345 kts | 349° |
| 2026-05-04 18:09 | 55.00992 | 12.68892 | 12888 ft | 332 kts | 349° |
| 2026-05-04 18:09 | 55.05551 | 12.68085 | 11964 ft | 329 kts | 349° |
| 2026-05-04 18:10 | 55.07791 | 12.67688 | 11679 ft | 325 kts | 349° |
| 2026-05-04 18:10 | 55.10010 | 12.67295 | 11473 ft | 317 kts | 349° |
| 2026-05-04 18:10 | 55.12197 | 12.66906 | 11089 ft | 316 kts | 349° |
| 2026-05-04 18:10 | 55.14400 | 12.66514 | 10763 ft | 313 kts | 349° |
| 2026-05-04 18:11 | 55.16533 | 12.66134 | 10414 ft | 311 kts | 349° |
| 2026-05-04 18:11 | 55.18678 | 12.65752 | 10065 ft | 309 kts | 349° |
| 2026-05-04 18:11 | 55.20808 | 12.65372 | 9720 ft | 307 kts | 349° |
| 2026-05-04 18:11 | 55.22934 | 12.65105 | 9317 ft | 309 kts | 359° |
| 2026-05-04 18:12 | 55.25058 | 12.66005 | 8956 ft | 312 kts | 14° |
| 2026-05-04 18:12 | 55.27096 | 12.67169 | 8555 ft | 311 kts | 14° |
| 2026-05-04 18:12 | 55.29173 | 12.68346 | 8187 ft | 309 kts | 14° |
| 2026-05-04 18:12 | 55.31213 | 12.69507 | 7846 ft | 307 kts | 14° |
| 2026-05-04 18:13 | 55.33237 | 12.70661 | 7492 ft | 305 kts | 14° |
| 2026-05-04 18:13 | 55.35225 | 12.71795 | 7132 ft | 304 kts | 14° |
| 2026-05-04 18:13 | 55.39222 | 12.74080 | 6472 ft | 300 kts | 14° |
| 2026-05-04 18:14 | 55.41199 | 12.75212 | 6112 ft | 299 kts | 14° |
| 2026-05-04 18:14 | 55.43167 | 12.76341 | 5772 ft | 296 kts | 14° |
| 2026-05-04 18:14 | 55.45099 | 12.77450 | 5470 ft | 286 kts | 14° |
| 2026-05-04 18:15 | 55.48753 | 12.79550 | 4768 ft | 270 kts | 15° |
| 2026-05-04 18:15 | 55.52292 | 12.81587 | 4176 ft | 266 kts | 15° |
| 2026-05-04 18:15 | 55.54033 | 12.82592 | 4024 ft | 259 kts | 15° |
| 2026-05-04 18:16 | 55.55696 | 12.83574 | 4019 ft | 245 kts | 18° |
| 2026-05-04 18:16 | 55.57239 | 12.84696 | 4019 ft | 236 kts | 20° |
| 2026-05-04 18:16 | 55.58745 | 12.85842 | 4002 ft | 235 kts | 20° |
| 2026-05-04 18:17 | 55.61745 | 12.88137 | 3991 ft | 235 kts | 20° |
| 2026-05-04 18:17 | 55.63246 | 12.89286 | 4007 ft | 235 kts | 20° |
| 2026-05-04 18:17 | 55.66225 | 12.91633 | 3993 ft | 234 kts | 20° |
| 2026-05-04 18:18 | 55.67749 | 12.92548 | 3971 ft | 229 kts | 3° |
| 2026-05-04 18:18 | 55.69330 | 12.92636 | 4010 ft | 228 kts | 355° |
| 2026-05-04 18:18 | 55.70911 | 12.92580 | 4005 ft | 227 kts | 355° |
| 2026-05-04 18:18 | 55.72488 | 12.92522 | 3996 ft | 226 kts | 355° |
| 2026-05-04 18:19 | 55.75098 | 12.90365 | 3627 ft | 212 kts | 292° |
| 2026-05-04 18:19 | 55.75191 | 12.87904 | 3652 ft | 194 kts | 257° |
| 2026-05-04 18:19 | 55.74640 | 12.85879 | 3602 ft | 183 kts | 238° |
| 2026-05-04 18:20 | 55.73790 | 12.84192 | 3295 ft | 184 kts | 226° |
| 2026-05-04 18:20 | 55.72823 | 12.82702 | 2999 ft | 184 kts | 224° |
| 2026-05-04 18:20 | 55.71850 | 12.81215 | 2702 ft | 184 kts | 225° |
| 2026-05-04 18:20 | 55.70894 | 12.79733 | 2416 ft | 179 kts | 226° |
| 2026-05-04 18:21 | 55.70000 | 12.78344 | 2125 ft | 164 kts | 226° |
| 2026-05-04 18:21 | 55.69152 | 12.77023 | 1856 ft | 161 kts | 225° |
| 2026-05-04 18:21 | 55.68319 | 12.75727 | 1599 ft | 158 kts | 225° |
| 2026-05-04 18:21 | 55.67495 | 12.74444 | 1390 ft | 158 kts | 226° |
| 2026-05-04 18:22 | 55.66685 | 12.73189 | 1134 ft | 150 kts | 225° |
| 2026-05-04 18:22 | 55.65912 | 12.71986 | 926 ft | 147 kts | 225° |
| 2026-05-04 18:22 | 55.65150 | 12.70803 | 735 ft | 145 kts | 224° |
| 2026-05-04 18:22 | 55.64396 | 12.69630 | 530 ft | 145 kts | 225° |
| 2026-05-04 18:23 | 55.63634 | 12.68458 | 360 ft | 146 kts | 224° |
| 2026-05-04 18:23 | 55.62868 | 12.67280 | 150 ft | 145 kts | 225° |
| 2026-05-04 18:23 | 55.62151 | 12.66157 | 19 ft | 127 kts | 222° |
| 2026-05-04 18:23 | 55.61662 | 12.65388 | 19 ft | 48 kts | 223° |
| 2026-05-04 18:24 | 55.61651 | 12.64949 | 19 ft | 28 kts | 307° |
| 2026-05-04 18:24 | 55.61760 | 12.64797 | 22 ft | 19 kts | 341° |
| 2026-05-04 18:24 | 55.61867 | 12.64800 | 20 ft | 12 kts | 20° |
| 2026-05-04 18:24 | 55.61951 | 12.64884 | 20 ft | 14 kts | 32° |
| 2026-05-04 18:25 | 55.62009 | 12.64949 | 26 ft | 6 kts | 32° |
| 2026-05-04 18:25 | 55.62037 | 12.64981 | 24 ft | 1 kts | 33° |
| 2026-05-04 18:25 | 55.62052 | 12.64998 | 25 ft | 4 kts | 33° |
| 2026-05-04 18:25 | 55.62087 | 12.65039 | 28 ft | 6 kts | 33° |
| 2026-05-04 18:26 | 55.62098 | 12.65053 | 26 ft | 0 kts | 33° |
| 2026-05-04 18:26 | 55.62103 | 12.65058 | 26 ft | 2 kts | 33° |
| 2026-05-04 18:27 | 55.62118 | 12.65075 | 28 ft | 3 kts | 33° |
| 2026-05-04 18:27 | 55.62138 | 12.65099 | 27 ft | 4 kts | 33° |
| 2026-05-04 18:27 | 55.62155 | 12.65119 | 27 ft | 2 kts | 33° |
| 2026-05-04 18:27 | 55.62180 | 12.65148 | 27 ft | 7 kts | 32° |
| 2026-05-04 18:28 | 55.62254 | 12.65199 | 25 ft | 14 kts | 14° |
| 2026-05-04 18:28 | 55.62300 | 12.65296 | 28 ft | 12 kts | 52° |
| 2026-05-04 18:28 | 55.62372 | 12.65327 | 22 ft | 13 kts | 358° |
| 2026-05-04 18:28 | 55.62437 | 12.65398 | 20 ft | 12 kts | 76° |
| 2026-05-04 18:29 | 55.62443 | 12.65556 | 20 ft | 13 kts | 88° |
| 2026-05-04 18:29 | 55.62445 | 12.65712 | 21 ft | 12 kts | 88° |
| 2026-05-04 18:29 | 55.62467 | 12.65833 | 18 ft | 8 kts | 32° |
| 2026-05-04 18:29 | 55.62515 | 12.65843 | 18 ft | 0 kts | 356° |